createdAt,value
2022-08-26T00:01:54.741Z,98958.20
2022-08-26T00:04:25.229Z,98958.20
2022-08-26T00:06:53.879Z,98953.40
2022-08-26T00:09:22.152Z,98951.80
2022-08-26T00:11:49.884Z,98952.40
2022-08-26T00:14:17.682Z,98952.20
2022-08-26T00:16:47.986Z,98950.60
2022-08-26T00:19:18.490Z,98949.80
2022-08-26T00:21:48.785Z,98951.20
2022-08-26T00:24:19.351Z,98950.20
2022-08-26T00:26:46.034Z,98947.00
2022-08-26T00:29:13.388Z,98948.80
2022-08-26T00:31:41.053Z,98947.60
2022-08-26T00:34:11.143Z,98945.00
2022-08-26T00:36:39.776Z,98946.00
2022-08-26T00:39:08.289Z,98950.20
2022-08-26T00:41:38.641Z,98945.00
2022-08-26T00:44:06.602Z,98948.40
2022-08-26T00:46:46.552Z,98943.60
2022-08-26T00:49:26.813Z,98946.20
2022-08-26T00:52:01.095Z,98946.60
2022-08-26T00:54:34.435Z,98945.00
2022-08-26T00:57:08.765Z,98948.60
2022-08-26T00:59:48.314Z,98948.40
2022-08-26T01:02:21.319Z,98952.80
2022-08-26T01:04:55.528Z,98954.00
2022-08-26T01:07:26.146Z,98952.40
2022-08-26T01:09:53.158Z,98949.80
2022-08-26T01:12:21.954Z,98950.40
2022-08-26T01:14:50.010Z,98952.20
2022-08-26T01:17:16.703Z,98948.40
2022-08-26T01:19:50.980Z,98953.60
2022-08-26T01:22:37.655Z,98951.60
2022-08-26T01:25:05.010Z,98956.20
2022-08-26T01:27:33.653Z,98950.80
2022-08-26T01:30:02.346Z,98950.20
2022-08-26T01:32:32.159Z,98950.00
2022-08-26T01:34:59.501Z,98954.00
2022-08-26T01:37:36.526Z,98957.20
2022-08-26T01:40:09.335Z,98960.40
2022-08-26T01:42:36.028Z,98961.60
2022-08-26T01:45:26.363Z,98959.80
2022-08-26T01:47:57.364Z,98956.60
2022-08-26T01:50:32.832Z,98960.40
2022-08-26T01:53:12.143Z,98961.20
2022-08-26T01:55:44.082Z,98955.80
2022-08-26T01:58:20.944Z,98957.00
2022-08-26T02:00:48.340Z,98950.60
2022-08-26T02:03:18.323Z,98947.60
2022-08-26T02:05:59.308Z,98948.00
2022-08-26T02:08:49.432Z,98942.20
2022-08-26T02:11:18.441Z,98941.60
2022-08-26T02:13:52.230Z,98944.00
2022-08-26T02:16:28.652Z,98940.40
2022-08-26T02:18:57.999Z,98944.00
2022-08-26T02:21:25.151Z,98945.40
2022-08-26T02:23:52.530Z,98942.00
2022-08-26T02:26:26.954Z,98946.60
2022-08-26T02:29:05.368Z,98939.20
2022-08-26T02:31:34.152Z,98939.60
2022-08-26T02:34:20.472Z,98943.80
2022-08-26T02:36:47.156Z,98942.60
2022-08-26T02:39:19.525Z,98945.20
2022-08-26T02:41:48.891Z,98939.00
2022-08-26T02:44:17.713Z,98943.20
2022-08-26T02:46:46.860Z,98942.00
2022-08-26T02:49:15.331Z,98943.00
2022-08-26T02:51:43.757Z,98939.80
2022-08-26T02:54:10.476Z,98939.60
2022-08-26T02:56:37.428Z,98937.20
2022-08-26T02:59:04.207Z,98935.60
2022-08-26T03:01:36.033Z,98933.40
2022-08-26T03:04:05.992Z,98931.40
2022-08-26T03:06:33.793Z,98928.60
2022-08-26T03:09:00.313Z,98933.60
2022-08-26T03:11:32.272Z,98936.20
2022-08-26T03:14:00.643Z,98937.60
2022-08-26T03:16:38.132Z,98939.00
2022-08-26T03:19:08.393Z,98932.80
2022-08-26T03:21:39.142Z,98932.60
2022-08-26T03:24:06.148Z,98927.20
2022-08-26T03:26:32.856Z,98930.20
2022-08-26T03:29:33.002Z,98934.40
2022-08-26T03:32:01.263Z,98929.60
2022-08-26T03:34:28.075Z,98931.00
2022-08-26T03:36:54.689Z,98928.80
2022-08-26T03:39:21.394Z,98931.80
2022-08-26T03:41:48.149Z,98929.60
2022-08-26T03:44:14.688Z,98929.80
2022-08-26T03:46:41.318Z,98926.00
2022-08-26T03:49:10.802Z,98925.20
2022-08-26T03:51:39.438Z,98925.00
2022-08-26T03:54:09.435Z,98926.40
2022-08-26T03:56:36.684Z,98923.80
2022-08-26T03:59:05.283Z,98922.20
2022-08-26T04:01:34.732Z,98921.40
2022-08-26T04:04:01.737Z,98919.40
2022-08-26T04:06:35.814Z,98914.80
2022-08-26T04:09:07.990Z,98914.40
2022-08-26T04:11:37.806Z,98917.40
2022-08-26T04:14:14.282Z,98918.40
2022-08-26T04:16:45.909Z,98918.00
2022-08-26T04:19:16.687Z,98917.20
2022-08-26T04:21:45.113Z,98925.80
2022-08-26T04:24:15.643Z,98928.20
2022-08-26T04:26:43.997Z,98925.00
2022-08-26T04:29:19.141Z,98921.20
2022-08-26T04:31:48.236Z,98916.00
2022-08-26T04:34:16.242Z,98915.80
2022-08-26T04:36:44.528Z,98917.60
2022-08-26T04:39:16.573Z,98919.40
2022-08-26T04:41:45.296Z,98919.60
2022-08-26T04:44:11.850Z,98921.00
2022-08-26T04:46:39.862Z,98921.20
2022-08-26T04:49:10.800Z,98921.60
2022-08-26T04:51:39.237Z,98923.60
2022-08-26T04:54:07.247Z,98920.00
2022-08-26T04:56:41.603Z,98918.20
2022-08-26T04:59:17.102Z,98920.60
2022-08-26T05:01:51.782Z,98920.60
2022-08-26T05:04:20.887Z,98917.80
2022-08-26T05:06:49.344Z,98917.80
2022-08-26T05:09:18.737Z,98922.40
2022-08-26T05:11:48.570Z,98926.20
2022-08-26T05:14:21.015Z,98925.20
2022-08-26T05:16:49.331Z,98919.20
2022-08-26T05:19:17.234Z,98924.80
2022-08-26T05:21:47.179Z,98929.80
2022-08-26T05:24:14.342Z,98930.20
2022-08-26T05:26:41.325Z,98929.60
2022-08-26T05:29:07.938Z,98931.40
2022-08-26T05:31:35.672Z,98931.20
2022-08-26T05:34:04.707Z,98928.80
2022-08-26T05:36:35.211Z,98930.00
2022-08-26T05:39:07.420Z,98932.60
2022-08-26T05:41:38.638Z,98931.00
2022-08-26T05:44:10.177Z,98926.40
2022-08-26T05:46:38.673Z,98926.80
2022-08-26T05:49:12.263Z,98930.00
2022-08-26T05:51:40.843Z,98931.00
2022-08-26T05:54:07.473Z,98931.20
2022-08-26T05:56:38.055Z,98932.00
2022-08-26T05:59:05.766Z,98928.20
2022-08-26T06:01:37.447Z,98926.60
2022-08-26T06:04:04.209Z,98928.60
2022-08-26T06:06:36.138Z,98929.40
2022-08-26T06:09:06.415Z,98923.20
2022-08-26T06:11:36.755Z,98924.00
2022-08-26T06:14:06.368Z,98920.60
2022-08-26T06:16:38.666Z,98920.60
2022-08-26T06:19:11.300Z,98924.00
2022-08-26T06:21:41.516Z,98922.80
2022-08-26T06:24:31.340Z,98923.20
2022-08-26T06:27:05.605Z,98923.00
2022-08-26T06:29:36.155Z,98924.80
2022-08-26T06:32:04.870Z,98924.00
2022-08-26T06:34:32.717Z,98926.60
2022-08-26T06:37:06.439Z,98917.40
2022-08-26T06:39:33.337Z,98919.80
2022-08-26T06:42:00.470Z,98916.40
2022-08-26T06:44:28.010Z,98916.00
2022-08-26T06:46:54.935Z,98919.60
2022-08-26T06:49:26.567Z,98920.60
2022-08-26T06:51:54.720Z,98918.00
2022-08-26T06:54:22.019Z,98917.40
2022-08-26T06:56:48.677Z,98920.20
2022-08-26T06:59:16.375Z,98917.60
2022-08-26T07:01:47.209Z,98915.00
2022-08-26T07:04:20.332Z,98919.00
2022-08-26T07:06:52.679Z,98917.40
2022-08-26T07:09:23.530Z,98916.20
2022-08-26T07:11:51.380Z,98916.20
2022-08-26T07:14:19.318Z,98914.80
2022-08-26T07:16:49.866Z,98914.80
2022-08-26T07:19:30.195Z,98912.20
2022-08-26T07:22:02.257Z,98914.20
2022-08-26T07:24:31.156Z,98915.20
2022-08-26T07:27:02.775Z,98910.60
2022-08-26T07:29:30.643Z,98916.40
2022-08-26T07:31:58.362Z,98910.40
2022-08-26T07:34:25.498Z,98910.60
2022-08-26T07:36:53.316Z,98907.80
2022-08-26T07:39:21.765Z,98905.40
2022-08-26T07:41:48.309Z,98902.80
2022-08-26T07:44:15.651Z,98903.40
2022-08-26T07:46:44.098Z,98900.00
2022-08-26T07:49:12.214Z,98906.20
2022-08-26T07:51:39.747Z,98903.00
2022-08-26T07:54:07.599Z,98902.40
2022-08-26T07:56:34.933Z,98901.80
2022-08-26T07:59:04.137Z,98903.80
2022-08-26T08:01:41.224Z,98899.80
2022-08-26T08:04:13.886Z,98904.40
2022-08-26T08:06:44.027Z,98904.00
2022-08-26T08:09:13.275Z,98907.80
2022-08-26T08:11:40.525Z,98904.60
2022-08-26T08:14:08.809Z,98901.40
2022-08-26T08:16:41.900Z,98903.40
2022-08-26T08:19:13.519Z,98904.40
2022-08-26T08:21:42.181Z,98902.60
2022-08-26T08:24:11.159Z,98902.80
2022-08-26T08:26:38.634Z,98908.20
2022-08-26T08:29:08.353Z,98907.40
2022-08-26T08:31:56.432Z,98906.20
2022-08-26T08:34:24.752Z,98901.00
2022-08-26T08:36:53.844Z,98904.00
2022-08-26T08:39:22.007Z,98906.80
2022-08-26T08:42:23.531Z,98904.00
2022-08-26T08:44:55.848Z,98902.80
2022-08-26T08:47:43.075Z,98898.00
2022-08-26T08:50:15.704Z,98899.60
2022-08-26T13:03:52.639Z,98745.60
2022-08-26T13:09:23.753Z,98736.00
2022-08-26T13:11:52.213Z,98735.00
2022-08-26T13:14:42.697Z,98728.80
2022-08-26T13:17:08.728Z,98728.40
2022-08-26T13:19:35.171Z,98726.20
2022-08-26T13:22:01.160Z,98722.60
2022-08-26T13:24:56.713Z,98722.20
2022-08-26T13:27:25.637Z,98722.40
2022-08-26T13:29:53.213Z,98720.20
2022-08-26T13:32:21.857Z,98717.80
2022-08-26T13:35:05.888Z,98720.20
2022-08-26T13:37:34.955Z,98719.00
2022-08-26T13:40:05.010Z,98719.00
2022-08-26T13:42:49.417Z,98716.40
2022-08-26T13:45:15.827Z,98712.60
2022-08-26T13:47:41.793Z,98710.40
2022-08-26T13:50:08.480Z,98709.20
2022-08-26T13:52:36.845Z,98708.80
2022-08-26T13:55:10.981Z,98703.80
2022-08-26T13:57:37.796Z,98704.20
2022-08-26T14:00:05.338Z,98704.20
2022-08-26T14:02:31.456Z,98704.60
2022-08-26T14:04:57.432Z,98698.40
2022-08-26T14:07:48.617Z,98698.00
2022-08-26T14:10:14.659Z,98697.60
2022-08-26T14:12:40.596Z,98698.60
2022-08-26T14:15:08.324Z,98695.00
2022-08-26T14:17:48.322Z,98696.40
2022-08-26T14:20:28.452Z,98696.40
2022-08-26T14:23:20.725Z,98696.80
2022-08-26T14:25:42.654Z,98697.20
2022-08-26T14:28:08.557Z,98699.00
2022-08-26T14:30:36.193Z,98697.00
2022-08-26T14:33:02.216Z,98694.00
2022-08-26T14:36:18.196Z,98695.80
2022-08-26T14:38:45.981Z,98691.20
2022-08-26T14:41:16.953Z,98689.60
2022-08-26T14:43:53.958Z,98686.60
2022-08-26T14:46:20.048Z,98683.20
2022-08-26T14:48:46.068Z,98678.80
2022-08-26T14:51:12.203Z,98681.60
2022-08-26T14:53:57.211Z,98676.80
2022-08-26T14:56:23.940Z,98679.20
2022-08-26T14:58:49.835Z,98677.00
2022-08-26T15:01:15.876Z,98676.60
2022-08-26T15:04:06.486Z,98671.60
2022-08-26T15:06:34.170Z,98669.20
2022-08-26T15:09:00.091Z,98661.80
2022-08-26T15:11:26.459Z,98659.40
2022-08-26T15:14:01.729Z,98654.80
2022-08-26T15:16:31.472Z,98655.60
2022-08-26T15:19:00.485Z,98654.20
2022-08-26T15:21:26.395Z,98649.00
2022-08-26T15:26:44.061Z,98650.20
2022-08-26T15:29:10.015Z,98653.00
2022-08-26T15:31:36.154Z,98652.60
2022-08-26T15:34:16.331Z,98649.40
2022-08-26T15:36:45.229Z,98648.60
2022-08-26T15:39:13.185Z,98646.80
2022-08-26T15:41:40.425Z,98647.20
2022-08-26T15:44:07.815Z,98648.80
2022-08-26T15:46:38.777Z,98645.80
2022-08-26T15:49:09.234Z,98647.20
2022-08-26T15:51:45.323Z,98649.00
2022-08-26T15:54:15.941Z,98648.20
2022-08-26T15:56:45.424Z,98648.80
2022-08-26T15:59:18.836Z,98650.40
2022-08-26T16:01:45.215Z,98648.40
2022-08-26T16:04:11.745Z,98647.80
2022-08-26T16:06:39.976Z,98646.60
2022-08-26T16:09:10.179Z,98647.20
2022-08-26T16:11:38.059Z,98643.60
2022-08-26T16:14:05.746Z,98643.60
2022-08-26T16:16:31.721Z,98641.00
2022-08-26T16:18:58.092Z,98644.20
2022-08-26T16:21:30.279Z,98644.00
2022-08-26T16:23:57.651Z,98643.20
2022-08-26T16:26:28.606Z,98643.40
2022-08-26T16:28:54.893Z,98643.80
2022-08-26T16:31:21.566Z,98640.60
2022-08-26T16:33:53.581Z,98640.60
2022-08-26T16:36:19.960Z,98639.40
2022-08-26T16:38:52.621Z,98641.60
2022-08-26T16:41:18.863Z,98637.20
2022-08-26T16:43:45.284Z,98640.00
2022-08-26T16:46:17.177Z,98634.20
2022-08-26T16:48:44.977Z,98638.00
2022-08-26T16:51:18.564Z,98638.60
2022-08-26T16:53:45.514Z,98637.60
2022-08-26T17:07:48.771Z,98642.00
2022-08-26T17:10:15.607Z,98637.40
2022-08-26T17:12:42.494Z,98641.60
2022-08-26T17:15:10.871Z,98644.60
2022-08-26T17:17:37.599Z,98639.60
2022-08-26T17:20:11.060Z,98644.20
2022-08-26T17:22:41.172Z,98645.80
2022-08-26T17:25:31.787Z,98645.60
2022-08-26T17:27:59.327Z,98647.40
2022-08-26T17:30:26.334Z,98648.40
2022-08-26T17:32:54.558Z,98649.40
2022-08-26T17:35:22.332Z,98649.40
2022-08-26T17:37:49.286Z,98648.60
2022-08-26T17:40:21.594Z,98653.40
2022-08-26T17:42:48.919Z,98653.40
2022-08-26T17:45:16.410Z,98652.20
2022-08-26T17:47:44.575Z,98650.00
2022-08-26T17:50:15.474Z,98649.00
2022-08-26T17:52:42.619Z,98651.40
2022-08-26T17:55:12.871Z,98652.20
2022-08-26T17:57:40.844Z,98652.00
2022-08-26T18:00:18.979Z,98655.80
2022-08-26T18:02:45.592Z,98655.00
2022-08-26T18:05:17.419Z,98652.80
2022-08-26T18:07:44.923Z,98651.20
2022-08-26T18:10:16.473Z,98648.20
2022-08-26T18:12:43.380Z,98648.40
2022-08-26T18:15:12.191Z,98647.40
2022-08-26T18:17:39.367Z,98647.80
2022-08-26T18:20:15.212Z,98651.40
2022-08-26T18:22:42.887Z,98655.60
2022-08-26T18:25:10.912Z,98653.80
2022-08-26T18:27:38.343Z,98655.20
2022-08-26T18:30:16.654Z,98654.80
2022-08-26T18:32:44.297Z,98651.60
2022-08-26T18:35:11.883Z,98649.00
2022-08-26T18:37:38.942Z,98645.40
2022-08-26T18:40:09.600Z,98645.80
2022-08-26T18:42:37.290Z,98641.60
2022-08-26T18:45:06.546Z,98644.60
2022-08-26T18:47:33.579Z,98639.60
2022-08-26T18:50:03.666Z,98641.60
2022-08-26T18:52:31.671Z,98638.40
2022-08-26T18:54:59.526Z,98638.60
2022-08-26T18:57:26.074Z,98639.40
2022-08-26T18:59:52.623Z,98637.40
2022-08-26T19:02:19.333Z,98636.00
2022-08-26T19:04:45.865Z,98638.20
2022-08-26T19:07:12.388Z,98636.80
2022-08-26T19:09:38.913Z,98640.60
2022-08-26T19:12:05.813Z,98637.80
2022-08-26T19:14:34.992Z,98636.80
2022-08-26T19:17:02.516Z,98640.20
2022-08-26T19:19:29.549Z,98638.20
2022-08-26T19:21:56.508Z,98644.00
2022-08-26T19:24:25.983Z,98642.60
2022-08-26T19:27:00.233Z,98641.80
2022-08-26T19:29:34.356Z,98647.60
2022-08-26T19:32:02.893Z,98646.40
2022-08-26T19:34:29.549Z,98648.80
2022-08-26T19:36:58.239Z,98649.40
2022-08-26T19:39:26.162Z,98650.40
2022-08-26T19:41:53.533Z,98653.80
2022-08-26T19:44:41.693Z,98654.60
2022-08-26T19:47:10.756Z,98653.80
2022-08-26T19:49:38.479Z,98655.80
2022-08-26T19:52:06.048Z,98656.40
2022-08-26T19:54:35.157Z,98656.00
2022-08-26T19:57:02.036Z,98655.80
2022-08-26T19:59:29.224Z,98653.40
2022-08-26T20:02:01.433Z,98658.80
2022-08-26T20:04:32.763Z,98658.00
2022-08-26T20:07:01.924Z,98663.20
2022-08-26T20:09:31.142Z,98669.40
2022-08-26T20:11:57.883Z,98670.60
2022-08-26T20:14:26.573Z,98672.00
2022-08-26T20:16:54.050Z,98678.20
2022-08-26T20:59:52.690Z,98694.20
2022-08-26T21:02:19.289Z,98694.00
2022-08-26T21:04:46.035Z,98696.60
2022-08-26T21:07:12.793Z,98701.00
2022-08-26T21:09:39.361Z,98699.20
2022-08-26T21:12:06.443Z,98702.00
2022-08-26T21:14:33.082Z,98704.00
2022-08-26T21:16:59.752Z,98704.80
2022-08-26T21:19:26.709Z,98700.80
2022-08-26T21:21:53.467Z,98702.00
2022-08-26T21:24:20.276Z,98701.00
2022-08-26T21:26:47.825Z,98697.40
2022-08-26T21:29:14.993Z,98698.20
2022-08-26T21:31:46.568Z,98700.40
2022-08-26T21:34:16.325Z,98701.80
2022-08-26T21:36:43.842Z,98695.20
2022-08-26T21:39:11.966Z,98697.80
2022-08-26T21:41:39.784Z,98695.40
2022-08-26T21:44:06.728Z,98695.40
2022-08-26T21:46:34.526Z,98691.00
2022-08-26T21:49:05.146Z,98690.80
2022-08-26T21:51:36.223Z,98687.40
2022-08-26T21:54:10.575Z,98686.00
2022-08-26T21:56:44.236Z,98682.40
2022-08-26T21:59:12.295Z,98683.40
2022-08-26T22:01:39.067Z,98682.60
2022-08-26T22:04:08.788Z,98684.40
2022-08-26T22:06:46.581Z,98681.40
2022-08-26T22:09:16.814Z,98678.60
2022-08-26T22:11:43.525Z,98679.00
2022-08-26T22:14:11.592Z,98682.60
2022-08-26T22:16:38.431Z,98678.80
2022-08-26T22:19:05.680Z,98679.60
2022-08-26T22:21:34.176Z,98672.40
2022-08-26T22:24:00.756Z,98675.80
2022-08-26T22:26:34.585Z,98672.00
2022-08-26T22:29:04.844Z,98670.20
2022-08-26T22:31:37.826Z,98670.40
2022-08-26T22:34:15.696Z,98666.80
2022-08-26T22:36:46.600Z,98664.60
2022-08-26T22:39:17.422Z,98660.40
2022-08-26T22:41:46.192Z,98664.40
2022-08-26T22:44:12.836Z,98661.60
2022-08-26T22:46:40.577Z,98656.00
2022-08-26T22:49:10.262Z,98658.40
2022-08-26T22:51:37.009Z,98652.20
2022-08-26T22:54:04.755Z,98650.80
2022-08-26T22:56:31.347Z,98651.40
2022-08-26T22:58:57.950Z,98646.00
2022-08-26T23:01:24.536Z,98645.20
2022-08-26T23:03:51.148Z,98645.60
2022-08-26T23:06:17.697Z,98642.60
2022-08-26T23:08:46.348Z,98641.80
2022-08-26T23:11:14.966Z,98641.80
2022-08-26T23:13:42.432Z,98640.60
2022-08-26T23:16:12.998Z,98640.00
2022-08-26T23:18:41.593Z,98638.20
2022-08-26T23:21:10.212Z,98637.60
2022-08-26T23:23:38.343Z,98638.00
2022-08-26T23:26:07.777Z,98636.00
2022-08-26T23:28:36.551Z,98636.80
2022-08-26T23:31:03.208Z,98642.60
2022-08-26T23:33:49.764Z,98641.20
2022-08-26T23:36:18.401Z,98638.60
2022-08-26T23:38:53.117Z,98640.20
2022-08-26T23:41:22.741Z,98639.40
2022-08-26T23:43:50.550Z,98639.20
2022-08-26T23:46:18.750Z,98635.40
2022-08-26T23:48:45.700Z,98638.20
2022-08-26T23:51:38.903Z,98636.20
2022-08-26T23:54:05.495Z,98629.80
2022-08-26T23:56:34.915Z,98628.40
2022-08-26T23:59:01.536Z,98618.80
